EW0844 Weather Reports


Display with metric or nautical units.
time (UTC)temp
F
wind
direction
speed
MPH
gust
MPH
rain 1hr
in
rain 24hr
in
rain mn
in
humidity
%
barometer
mb
20190917211918 58 230 0.0 0.0 0.00 0.02 0.02 80 1018.8
20190917210420 58 237 0.0 0.0 0.00 0.02 0.02 79 1018.7
20190917204916 64 261 0.0 0.0 0.00 0.00 0.02 87 1015.8
20190917203417 64 261 0.0 0.0 0.00 0.00 0.02 87 1015.8
20190917200418 67 309 1.0 8.0 0.00 0.02 0.02 64 1016.1
20190917191916 64 261 0.0 0.0 0.00 0.02 0.02 87 1015.8
20190917190416 60 292 0.0 0.0 0.00 0.04 0.02 77 1017.4
20190917184916 71 286 5.0 14.0 0.00 0.04 0.02 60 1015.0
20190917180416 66 329 0.0 11.0 0.00 0.04 0.02 68 1015.3
20190917174916 63 291 0.0 0.0 0.00 0.04 0.02 75 1016.3
20190917173416 63 320 0.0 0.0 0.00 0.04 0.02 74 1016.1
20190917171916 63 271 0.0 0.0 0.00 0.04 0.02 74 1015.9
20190917170416 64 302 0.0 0.0 0.00 0.04 0.02 73 1015.8
20190917164917 64 290 0.0 0.0 0.00 0.04 0.02 72 1015.6
20190917163419 65 251 0.0 0.0 0.00 0.04 0.02 71 1015.5
20190917153416 66 227 0.0 1.0 0.00 0.04 0.02 69 1015.4
20190917151916 66 282 0.0 7.0 0.00 0.04 0.02 68 1015.3
20190917150416 66 288 1.0 7.0 0.00 0.04 0.02 65 1016.1
20190917144916 65 281 6.0 11.0 0.00 0.04 0.02 69 1015.3
20190917143416 66 337 0.0 1.0 0.00 0.04 0.02 69 1015.3
20190917141916 67 328 0.0 11.0 0.00 0.04 0.02 68 1015.3
20190917140416 67 309 2.0 8.0 0.00 0.04 0.02 67 1015.3
20190917134916 68 304 4.0 10.0 0.00 0.04 0.02 65 1015.2
20190917130416 71 308 4.0 15.0 0.00 0.04 0.02 59 1015.1
20190917124916 71 294 1.0 10.0 0.00 0.04 0.02 59 1015.1
20190917121916 65 5 0.0 6.0 0.00 0.04 0.02 67 1016.3
20190917114916 70 292 6.0 9.0 0.00 0.04 0.02 61 1015.5
20190917113416 69 282 0.0 9.0 0.00 0.04 0.02 60 1015.6
20190917101916 67 246 0.0 8.0 0.00 0.04 0.02 64 1016.1
20190917094916 66 290 0.0 7.0 0.00 0.04 0.02 64 1016.1
20190917093416 66 301 1.0 4.0 0.00 0.04 0.02 66 1016.1
20190917084915 64 254 0.0 0.0 0.00 0.04 0.02 70 1016.1
20190917083416 64 304 0.0 3.0 0.00 0.04 0.02 72 1016.1
20190917074916 63 277 0.0 4.0 0.00 0.04 0.02 75 1015.9
20190917063416 60 150 0.0 0.0 0.00 0.04 0.02 85 1016.1
20190917061916 59 150 0.0 0.0 0.00 0.04 0.02 87 1015.7
20190917060416 59 148 0.0 0.0 0.00 0.04 0.02 88 1015.8
20190917054915 64 261 0.0 0.0 0.00 0.02 0.02 87 1015.8
20190917053415 64 261 0.0 0.0 0.00 0.02 0.02 87 1015.8
20190917051916 58 292 0.0 0.0 0.00 0.04 0.02 90 1016.0
20190917050416 58 292 0.0 0.0 0.00 0.04 0.02 90 1015.8
20190917044916 59 292 0.0 0.0 0.00 0.04 0.02 90 1015.7
20190917043415 59 292 0.0 0.0 0.00 0.04 0.02 90 1015.6
20190917041916 59 292 0.0 0.0 0.00 0.04 0.02 89 1015.6
20190917040415 59 292 0.0 0.0 0.00 0.04 0.02 89 1015.6
20190917024916 61 292 0.0 0.0 0.00 0.04 0.02 88 1015.4
20190917023415 62 292 0.0 0.0 0.00 0.04 0.02 88 1015.3
20190917010415 63 292 0.0 0.0 0.00 0.04 0.02 88 1015.4
20190917003416 63 292 0.0 0.0 0.00 0.04 0.02 88 1015.2
20190917001915 63 292 0.0 0.0 0.00 0.04 0.02 88 1015.3
20190917000418 63 292 0.0 0.0 0.00 0.04 0.02 88 1015.4
20190916233416 63 292 0.0 0.0 0.01 0.04 0.02 88 1015.5
20190916231915 63 245 0.0 0.0 0.02 0.04 0.02 88 1015.4
20190916230415 64 245 0.0 0.0 0.02 0.04 0.02 88 1015.7
20190916214915 64 261 0.0 0.0 0.00 0.02 0.02 86 1016.1
20190916213420 65 304 0.0 0.0 0.00 0.02 0.02 86 1015.8